sensor_id;sensor_type;location;lat;lon;timestamp;P1;durP1;ratioP1;P2;durP2;ratioP2
57321;SDS011;43159;51.006;18.224;2023-03-04T00:02:09;38.10;;;14.40;;
57321;SDS011;43159;51.006;18.224;2023-03-04T00:11:51;61.50;;;16.00;;
57321;SDS011;43159;51.006;18.224;2023-03-04T00:21:33;32.80;;;13.10;;
57321;SDS011;43159;51.006;18.224;2023-03-04T00:31:15;37.80;;;15.30;;
57321;SDS011;43159;51.006;18.224;2023-03-04T00:40:59;37.10;;;13.40;;
57321;SDS011;43159;51.006;18.224;2023-03-04T00:50:42;37.40;;;14.90;;
57321;SDS011;43159;51.006;18.224;2023-03-04T01:00:24;28.50;;;9.80;;
57321;SDS011;43159;51.006;18.224;2023-03-04T01:10:09;43.00;;;16.50;;
57321;SDS011;43159;51.006;18.224;2023-03-04T01:19:53;47.70;;;17.80;;
57321;SDS011;43159;51.006;18.224;2023-03-04T01:29:36;37.80;;;15.50;;
57321;SDS011;43159;51.006;18.224;2023-03-04T01:39:17;49.60;;;18.70;;
57321;SDS011;43159;51.006;18.224;2023-03-04T01:49:00;35.60;;;12.60;;
57321;SDS011;43159;51.006;18.224;2023-03-04T01:58:44;32.10;;;14.10;;
57321;SDS011;43159;51.006;18.224;2023-03-04T02:08:30;41.10;;;16.30;;
57321;SDS011;43159;51.006;18.224;2023-03-04T02:18:20;39.20;;;14.10;;
57321;SDS011;43159;51.006;18.224;2023-03-04T02:31:30;41.80;;;11.60;;
57321;SDS011;43159;51.006;18.224;2023-03-04T02:41:16;34.80;;;14.50;;
57321;SDS011;43159;51.006;18.224;2023-03-04T02:51:02;48.50;;;12.80;;
57321;SDS011;43159;51.006;18.224;2023-03-04T03:00:44;35.00;;;8.20;;
57321;SDS011;43159;51.006;18.224;2023-03-04T03:08:01;44.80;;;21.10;;
57321;SDS011;43159;51.006;18.224;2023-03-04T03:10:27;45.50;;;21.40;;
57321;SDS011;43159;51.006;18.224;2023-03-04T03:17:44;40.80;;;18.10;;
57321;SDS011;43159;51.006;18.224;2023-03-04T03:20:10;40.20;;;18.10;;
57321;SDS011;43159;51.006;18.224;2023-03-04T03:29:54;39.00;;;16.30;;
57321;SDS011;43159;51.006;18.224;2023-03-04T03:39:36;24.70;;;13.30;;
57321;SDS011;43159;51.006;18.224;2023-03-04T03:49:18;25.00;;;10.20;;
57321;SDS011;43159;51.006;18.224;2023-03-04T03:59:01;24.70;;;12.40;;
57321;SDS011;43159;51.006;18.224;2023-03-04T04:08:43;32.30;;;12.90;;
57321;SDS011;43159;51.006;18.224;2023-03-04T04:18:26;29.90;;;10.90;;
57321;SDS011;43159;51.006;18.224;2023-03-04T04:28:08;13.30;;;7.00;;
57321;SDS011;43159;51.006;18.224;2023-03-04T04:37:52;33.60;;;15.50;;
57321;SDS011;43159;51.006;18.224;2023-03-04T04:47:34;37.70;;;17.40;;
57321;SDS011;43159;51.006;18.224;2023-03-04T04:57:17;30.70;;;11.70;;
57321;SDS011;43159;51.006;18.224;2023-03-04T05:06:58;29.10;;;14.50;;
57321;SDS011;43159;51.006;18.224;2023-03-04T05:16:40;25.50;;;10.80;;
57321;SDS011;43159;51.006;18.224;2023-03-04T05:26:22;20.00;;;9.30;;
57321;SDS011;43159;51.006;18.224;2023-03-04T05:36:05;27.80;;;10.90;;
57321;SDS011;43159;51.006;18.224;2023-03-04T05:45:49;22.30;;;8.20;;
57321;SDS011;43159;51.006;18.224;2023-03-04T05:55:30;27.60;;;11.80;;
57321;SDS011;43159;51.006;18.224;2023-03-04T06:05:13;35.10;;;12.40;;
57321;SDS011;43159;51.006;18.224;2023-03-04T06:14:59;32.80;;;15.90;;
57321;SDS011;43159;51.006;18.224;2023-03-04T06:24:41;40.10;;;15.70;;
57321;SDS011;43159;51.006;18.224;2023-03-04T06:34:23;24.30;;;12.60;;
57321;SDS011;43159;51.006;18.224;2023-03-04T06:44:05;32.60;;;16.00;;
57321;SDS011;43159;51.006;18.224;2023-03-04T06:53:51;20.20;;;9.60;;
57321;SDS011;43159;51.006;18.224;2023-03-04T07:03:52;29.30;;;14.20;;
57321;SDS011;43159;51.006;18.224;2023-03-04T07:13:37;24.50;;;12.60;;
57321;SDS011;43159;51.006;18.224;2023-03-04T07:23:20;23.90;;;10.60;;
57321;SDS011;43159;51.006;18.224;2023-03-04T07:33:01;27.20;;;12.20;;
57321;SDS011;43159;51.006;18.224;2023-03-04T07:42:48;31.20;;;12.50;;
57321;SDS011;43159;51.006;18.224;2023-03-04T07:52:38;23.10;;;9.10;;
57321;SDS011;43159;51.006;18.224;2023-03-04T08:02:20;26.00;;;9.60;;
57321;SDS011;43159;51.006;18.224;2023-03-04T08:12:02;36.80;;;12.30;;
57321;SDS011;43159;51.006;18.224;2023-03-04T08:21:44;22.70;;;11.00;;
57321;SDS011;43159;51.006;18.224;2023-03-04T08:31:29;31.60;;;11.80;;
57321;SDS011;43159;51.006;18.224;2023-03-04T08:41:12;22.20;;;10.20;;
57321;SDS011;43159;51.006;18.224;2023-03-04T08:50:54;13.80;;;6.60;;
57321;SDS011;43159;51.006;18.224;2023-03-04T09:00:38;40.60;;;18.40;;
57321;SDS011;43159;51.006;18.224;2023-03-04T09:10:24;20.30;;;7.50;;
57321;SDS011;43159;51.006;18.224;2023-03-04T09:20:07;21.30;;;9.40;;
57321;SDS011;43159;51.006;18.224;2023-03-04T09:29:51;36.90;;;9.70;;
57321;SDS011;43159;51.006;18.224;2023-03-04T09:39:33;17.10;;;7.40;;
57321;SDS011;43159;51.006;18.224;2023-03-04T09:49:20;26.00;;;7.10;;
57321;SDS011;43159;51.006;18.224;2023-03-04T09:59:42;24.10;;;8.90;;
57321;SDS011;43159;51.006;18.224;2023-03-04T10:09:46;21.60;;;9.70;;
57321;SDS011;43159;51.006;18.224;2023-03-04T10:40:38;26.60;;;12.00;;
57321;SDS011;43159;51.006;18.224;2023-03-04T10:50:28;21.00;;;8.40;;
57321;SDS011;43159;51.006;18.224;2023-03-04T11:00:23;19.40;;;9.20;;
57321;SDS011;43159;51.006;18.224;2023-03-04T11:10:40;22.20;;;8.10;;
57321;SDS011;43159;51.006;18.224;2023-03-04T11:20:41;20.40;;;8.70;;
57321;SDS011;43159;51.006;18.224;2023-03-04T11:30:58;16.40;;;6.30;;
57321;SDS011;43159;51.006;18.224;2023-03-04T11:41:03;19.50;;;6.20;;
57321;SDS011;43159;51.006;18.224;2023-03-04T11:51:06;16.50;;;6.90;;
57321;SDS011;43159;51.006;18.224;2023-03-04T12:01:43;13.00;;;6.40;;
57321;SDS011;43159;51.006;18.224;2023-03-04T12:22:10;16.70;;;8.30;;
57321;SDS011;43159;51.006;18.224;2023-03-04T12:32:25;17.90;;;6.80;;
57321;SDS011;43159;51.006;18.224;2023-03-04T12:43:08;50.90;;;12.70;;
57321;SDS011;43159;51.006;18.224;2023-03-04T13:13:59;12.10;;;5.70;;
57321;SDS011;43159;51.006;18.224;2023-03-04T13:23:50;11.00;;;4.90;;
57321;SDS011;43159;51.006;18.224;2023-03-04T13:43:47;10.90;;;4.40;;
57321;SDS011;43159;51.006;18.224;2023-03-04T14:01:24;14.40;;;7.00;;
57321;SDS011;43159;51.006;18.224;2023-03-04T14:11:16;14.70;;;5.40;;
57321;SDS011;43159;51.006;18.224;2023-03-04T14:21:14;40.10;;;11.50;;
57321;SDS011;43159;51.006;18.224;2023-03-04T14:31:14;21.20;;;10.10;;
57321;SDS011;43159;51.006;18.224;2023-03-04T14:41:16;13.20;;;5.20;;
57321;SDS011;43159;51.006;18.224;2023-03-04T15:02:59;19.50;;;6.00;;
57321;SDS011;43159;51.006;18.224;2023-03-04T15:12:54;14.00;;;5.60;;
57321;SDS011;43159;51.006;18.224;2023-03-04T15:23:04;14.60;;;5.20;;
57321;SDS011;43159;51.006;18.224;2023-03-04T15:32:57;14.70;;;7.80;;
57321;SDS011;43159;51.006;18.224;2023-03-04T15:42:51;17.00;;;6.90;;
57321;SDS011;43159;51.006;18.224;2023-03-04T15:50:13;23.20;;;10.10;;
57321;SDS011;43159;51.006;18.224;2023-03-04T15:59:57;16.70;;;5.90;;
57321;SDS011;43159;51.006;18.224;2023-03-04T16:09:42;14.20;;;4.40;;
57321;SDS011;43159;51.006;18.224;2023-03-04T16:19:26;24.30;;;8.50;;
57321;SDS011;43159;51.006;18.224;2023-03-04T16:29:08;31.80;;;6.90;;
57321;SDS011;43159;51.006;18.224;2023-03-04T16:38:55;173.20;;;30.20;;
57321;SDS011;43159;51.006;18.224;2023-03-04T16:48:43;21.20;;;5.80;;
57321;SDS011;43159;51.006;18.224;2023-03-04T16:58:30;15.60;;;5.50;;
57321;SDS011;43159;51.006;18.224;2023-03-04T17:08:12;21.60;;;6.60;;
57321;SDS011;43159;51.006;18.224;2023-03-04T17:17:55;15.90;;;4.90;;
57321;SDS011;43159;51.006;18.224;2023-03-04T17:27:38;96.80;;;19.40;;
57321;SDS011;43159;51.006;18.224;2023-03-04T17:37:22;19.40;;;7.10;;
57321;SDS011;43159;51.006;18.224;2023-03-04T17:47:05;12.50;;;3.50;;
57321;SDS011;43159;51.006;18.224;2023-03-04T17:56:49;12.70;;;5.10;;
57321;SDS011;43159;51.006;18.224;2023-03-04T18:06:32;13.30;;;4.70;;
57321;SDS011;43159;51.006;18.224;2023-03-04T18:16:15;17.50;;;6.60;;
57321;SDS011;43159;51.006;18.224;2023-03-04T18:26:08;21.00;;;7.80;;
57321;SDS011;43159;51.006;18.224;2023-03-04T18:36:04;14.40;;;5.40;;
57321;SDS011;43159;51.006;18.224;2023-03-04T18:50:58;19.10;;;6.00;;
57321;SDS011;43159;51.006;18.224;2023-03-04T19:00:43;17.50;;;5.60;;
57321;SDS011;43159;51.006;18.224;2023-03-04T19:10:26;11.10;;;4.70;;
57321;SDS011;43159;51.006;18.224;2023-03-04T19:20:12;16.30;;;3.00;;
57321;SDS011;43159;51.006;18.224;2023-03-04T19:29:55;10.60;;;2.40;;
57321;SDS011;43159;51.006;18.224;2023-03-04T19:39:37;9.80;;;2.70;;
57321;SDS011;43159;51.006;18.224;2023-03-04T19:49:33;23.40;;;3.20;;
57321;SDS011;43159;51.006;18.224;2023-03-04T19:59:15;7.70;;;2.30;;
57321;SDS011;43159;51.006;18.224;2023-03-04T20:09:03;9.00;;;2.80;;
57321;SDS011;43159;51.006;18.224;2023-03-04T20:18:48;9.90;;;3.00;;
57321;SDS011;43159;51.006;18.224;2023-03-04T20:28:30;19.60;;;4.50;;
57321;SDS011;43159;51.006;18.224;2023-03-04T20:38:33;15.30;;;4.70;;
57321;SDS011;43159;51.006;18.224;2023-03-04T20:48:18;12.50;;;3.80;;
57321;SDS011;43159;51.006;18.224;2023-03-04T20:58:03;22.70;;;3.10;;
57321;SDS011;43159;51.006;18.224;2023-03-04T21:07:48;15.20;;;3.10;;
57321;SDS011;43159;51.006;18.224;2023-03-04T21:17:33;8.00;;;2.10;;
57321;SDS011;43159;51.006;18.224;2023-03-04T21:27:17;9.80;;;2.40;;
57321;SDS011;43159;51.006;18.224;2023-03-04T21:37:07;17.50;;;4.30;;
57321;SDS011;43159;51.006;18.224;2023-03-04T21:46:52;12.90;;;3.40;;
57321;SDS011;43159;51.006;18.224;2023-03-04T21:56:37;8.20;;;2.80;;
57321;SDS011;43159;51.006;18.224;2023-03-04T22:06:21;12.20;;;3.00;;
57321;SDS011;43159;51.006;18.224;2023-03-04T22:16:05;8.40;;;2.00;;
57321;SDS011;43159;51.006;18.224;2023-03-04T22:36:04;7.20;;;2.60;;
57321;SDS011;43159;51.006;18.224;2023-03-04T22:45:46;9.00;;;2.30;;
57321;SDS011;43159;51.006;18.224;2023-03-04T22:55:32;7.30;;;2.10;;
57321;SDS011;43159;51.006;18.224;2023-03-04T23:05:16;7.90;;;2.80;;
57321;SDS011;43159;51.006;18.224;2023-03-04T23:15:02;15.40;;;2.70;;
57321;SDS011;43159;51.006;18.224;2023-03-04T23:24:46;9.60;;;2.30;;
57321;SDS011;43159;51.006;18.224;2023-03-04T23:34:28;11.00;;;3.20;;
57321;SDS011;43159;51.006;18.224;2023-03-04T23:44:11;50.40;;;10.50;;
57321;SDS011;43159;51.006;18.224;2023-03-04T23:53:55;20.40;;;6.70;;
